Time;durP1;ratioP1;P1;durP2;ratioP2;P2;SDS_P1;SDS_P2;PMS_P1;PMS_P2;Temp;Humidity;BMP_temperature;BMP_pressure;BME280_temperature;BME280_humidity;BME280_pressure;Samples;Min_cycle;Max_cycle;Signal;HPM_P1;HPM_P2
2023/08/01 00:02:18;;;;;;;;;;;;;;;16.02;100.00;99877.47;5034926;28;19963;-71
2023/08/01 00:04:44;;;;;;;;;;;;;;;15.99;100.00;99884.06;5031336;28;19946;-71
2023/08/01 00:07:09;;;;;;;;;;;;;;;15.95;100.00;99881.91;5050904;28;19959;-71
2023/08/01 00:09:34;;;;;;;;;;;;;;;15.91;100.00;99867.84;5048820;28;20027;-69
2023/08/01 00:11:59;;;;;;;;;;;;;;;15.97;100.00;99872.56;5050440;28;19920;-69
2023/08/01 00:14:24;;;;;;;;;;;;;;;16.00;100.00;99880.34;5031467;28;19913;-71
2023/08/01 00:16:50;;;;;;;;;;;;;;;15.96;100.00;99876.28;5054979;28;19924;-73
2023/08/01 00:19:15;;;;;;;;;;;;;;;16.01;100.00;99871.19;5033834;28;20309;-74
2023/08/01 00:21:41;;;;;;;;;;;;;;;16.01;100.00;99854.13;5034503;28;20275;-74
2023/08/01 00:24:07;;;;;;;;;;;;;;;16.01;100.00;99862.25;5033400;28;20239;-73
2023/08/01 00:26:33;;;;;;;;;;;;;;;15.94;100.00;99859.38;5050271;28;19921;-72
2023/08/01 00:28:58;;;;;;;;;;;;;;;15.96;100.00;99860.03;5034290;28;19920;-73
2023/08/01 00:31:23;;;;;;;;;;;;;;;15.98;100.00;99852.59;5036082;28;20330;-74
2023/08/01 00:33:48;;;;;;;;;;;;;;;15.94;100.00;99845.03;5034492;28;20521;-74
2023/08/01 00:36:13;;;;;;;;;;;;;;;15.89;100.00;99850.97;5033112;28;19921;-71
2023/08/01 00:38:39;;;;;;;;;;;;;;;15.91;100.00;99848.91;5049275;28;20285;-74
2023/08/01 00:41:04;;;;;;;;;;;;;;;15.92;100.00;99857.88;5050550;28;19973;-72
2023/08/01 00:43:29;;;;;;;;;;;;;;;15.96;100.00;99853.81;5048570;28;19974;-73
2023/08/01 00:45:56;;;;;;;;;;;;;;;15.91;100.00;99848.06;5034323;28;20328;-73
2023/08/01 00:48:21;;;;;;;;;;;;;;;15.93;100.00;99849.56;5049757;28;20526;-73
2023/08/01 00:50:46;;;;;;;;;;;;;;;15.91;100.00;99835.38;5035667;28;20452;-72
2023/08/01 00:53:11;;;;;;;;;;;;;;;15.92;100.00;99838.94;5033145;28;20047;-71
2023/08/01 00:55:36;;;;;;;;;;;;;;;15.88;100.00;99836.59;5048638;28;19925;-71
2023/08/01 00:58:02;;;;;;;;;;;;;;;15.84;100.00;99837.94;5030787;28;19920;-72
2023/08/01 01:00:27;;;;;;;;;;;;;;;15.78;100.00;99832.41;5017147;28;19963;-70
2023/08/01 01:02:52;;;;;;;;;;;;;;;15.84;100.00;99831.69;5033460;28;20492;-71
2023/08/01 01:05:17;;;;;;;;;;;;;;;15.78;100.00;99829.69;5037255;28;20021;-71
2023/08/01 01:07:43;;;;;;;;;;;;;;;15.72;100.00;99831.25;5034866;28;20035;-71
2023/08/01 01:10:08;;;;;;;;;;;;;;;15.71;100.00;99824.16;5032368;28;19917;-73
2023/08/01 01:12:33;;;;;;;;;;;;;;;15.67;100.00;99826.34;5053952;28;19921;-71
2023/08/01 01:14:58;;;;;;;;;;;;;;;15.67;100.00;99836.34;5034662;28;19916;-71
2023/08/01 01:17:23;;;;;;;;;;;;;;;15.70;100.00;99836.00;5037110;28;19939;-73
2023/08/01 01:19:49;;;;;;;;;;;;;;;15.71;100.00;99829.56;5054075;28;20128;-71
2023/08/01 01:22:14;;;;;;;;;;;;;;;15.63;100.00;99833.13;5036963;28;20011;-71
2023/08/01 01:24:39;;;;;;;;;;;;;;;15.59;100.00;99834.53;5035045;28;19925;-71
2023/08/01 01:27:05;;;;;;;;;;;;;;;15.66;100.00;99831.97;5037137;28;20181;-72
2023/08/01 01:29:30;;;;;;;;;;;;;;;15.62;100.00;99827.91;5054984;28;20429;-71
2023/08/01 01:31:55;;;;;;;;;;;;;;;15.64;100.00;99824.00;5037749;28;19939;-71
2023/08/01 01:34:21;;;;;;;;;;;;;;;15.67;100.00;99826.34;5052562;28;19993;-71
2023/08/01 01:36:46;;;;;;;;;;;;;;;15.65;100.00;99825.69;5036252;28;20370;-71
2023/08/01 01:39:11;;;;;;;;;;;;;;;15.60;100.00;99818.13;5051542;28;19925;-71
2023/08/01 01:41:36;;;;;;;;;;;;;;;15.65;100.00;99824.84;5035309;28;19931;-71
2023/08/01 01:44:02;;;;;;;;;;;;;;;15.66;100.00;99829.25;5038627;28;19932;-71
2023/08/01 01:46:27;;;;;;;;;;;;;;;15.71;100.00;99822.28;5036537;28;19927;-71
2023/08/01 01:48:52;;;;;;;;;;;;;;;15.67;100.00;99815.53;5037074;28;19921;-71
2023/08/01 01:51:17;;;;;;;;;;;;;;;15.65;100.00;99820.28;5053138;28;19974;-71
2023/08/01 01:53:42;;;;;;;;;;;;;;;15.48;100.00;99811.44;5051693;28;19925;-70
2023/08/01 01:56:08;;;;;;;;;;;;;;;15.42;100.00;99820.25;5034044;28;19955;-70
2023/08/01 01:58:33;;;;;;;;;;;;;;;15.50;100.00;99822.88;5052399;28;19964;-71
2023/08/01 02:00:58;;;;;;;;;;;;;;;15.50;100.00;99819.34;5035344;28;20009;-70
2023/08/01 02:03:23;;;;;;;;;;;;;;;15.55;100.00;99814.25;5036031;28;20435;-72
2023/08/01 02:05:49;;;;;;;;;;;;;;;15.57;100.00;99818.47;5051222;28;19920;-73
2023/08/01 02:08:14;;;;;;;;;;;;;;;15.57;100.00;99817.63;5026323;28;20257;-71
2023/08/01 02:10:39;;;;;;;;;;;;;;;15.60;100.00;99814.59;5031490;28;20635;-72
2023/08/01 02:13:04;;;;;;;;;;;;;;;15.55;100.00;99809.69;5052723;28;20015;-73
2023/08/01 02:15:30;;;;;;;;;;;;;;;15.51;100.00;99819.16;5032756;28;20292;-72
2023/08/01 02:17:56;;;;;;;;;;;;;;;15.57;100.00;99817.63;5053593;28;20577;-72
2023/08/01 02:20:21;;;;;;;;;;;;;;;15.56;100.00;99814.06;5052975;28;19921;-72
2023/08/01 02:22:47;;;;;;;;;;;;;;;15.56;100.00;99808.66;5037176;28;20007;-71
2023/08/01 02:25:12;;;;;;;;;;;;;;;15.57;100.00;99804.09;5032651;28;20168;-72
2023/08/01 02:27:37;;;;;;;;;;;;;;;15.51;100.00;99811.03;5037705;28;20026;-71
2023/08/01 02:30:05;;;;;;;;;;;;;;;15.54;100.00;99812.56;5036369;28;20376;-71
2023/08/01 02:32:30;;;;;;;;;;;;;;;15.50;100.00;99813.94;5035445;28;19923;-75
2023/08/01 02:34:55;;;;;;;;;;;;;;;15.55;100.00;99817.78;5035091;28;20099;-73
2023/08/01 02:37:20;;;;;;;;;;;;;;;15.57;100.00;99828.47;5038169;28;20286;-74
2023/08/01 02:39:45;;;;;;;;;;;;;;;15.53;100.00;99821.72;5049725;28;19921;-72
2023/08/01 02:42:11;;;;;;;;;;;;;;;15.55;100.00;99831.31;5034481;28;19924;-72
2023/08/01 02:44:36;;;;;;;;;;;;;;;15.49;100.00;99823.06;5030751;28;19925;-71
2023/08/01 02:47:01;;;;;;;;;;;;;;;15.48;100.00;99829.50;5033375;28;19924;-72
2023/08/01 02:49:26;;;;;;;;;;;;;;;15.36;100.00;99831.75;5034554;28;20062;-71
2023/08/01 02:51:51;;;;;;;;;;;;;;;15.41;100.00;99827.50;5052797;28;19921;-75
2023/08/01 02:54:17;;;;;;;;;;;;;;;15.46;100.00;99832.41;5051475;28;19921;-71
2023/08/01 02:56:42;;;;;;;;;;;;;;;15.33;100.00;99840.22;5029820;28;20347;-70
2023/08/01 02:59:10;;;;;;;;;;;;;;;15.29;100.00;99829.75;5032394;28;20693;-73
2023/08/01 03:01:36;;;;;;;;;;;;;;;15.31;100.00;99832.28;5037989;28;20395;-71
2023/08/01 03:04:05;;;;;;;;;;;;;;;15.30;100.00;99823.31;5050867;28;19931;-70
2023/08/01 03:06:33;;;;;;;;;;;;;;;15.30;100.00;99839.53;5037342;28;19925;-71
2023/08/01 03:08:59;;;;;;;;;;;;;;;15.26;100.00;99827.38;5034204;28;20386;-70
2023/08/01 03:11:24;;;;;;;;;;;;;;;15.25;100.00;99820.28;5053096;28;19917;-71
2023/08/01 03:13:50;;;;;;;;;;;;;;;15.15;100.00;99827.78;5050939;28;20342;-70
2023/08/01 03:16:15;;;;;;;;;;;;;;;15.12;100.00;99828.13;5052001;28;19924;-72
2023/08/01 03:18:40;;;;;;;;;;;;;;;15.11;100.00;99827.28;5032583;28;20019;-72
2023/08/01 03:21:06;;;;;;;;;;;;;;;15.14;100.00;99818.81;5037053;28;19931;-71
2023/08/01 03:23:31;;;;;;;;;;;;;;;15.09;100.00;99817.66;5034921;28;19927;-71
2023/08/01 03:25:56;;;;;;;;;;;;;;;15.11;100.00;99815.63;5052280;28;19921;-72
2023/08/01 03:28:21;;;;;;;;;;;;;;;15.11;100.00;99821.88;5052415;28;19920;-71
2023/08/01 03:30:49;;;;;;;;;;;;;;;15.05;100.00;99821.72;5050869;28;19921;-70
2023/08/01 03:33:14;;;;;;;;;;;;;;;15.09;100.00;99817.66;5029863;28;20454;-70
2023/08/01 03:35:40;;;;;;;;;;;;;;;14.99;100.00;99825.97;5033844;28;19928;-73
2023/08/01 03:38:05;;;;;;;;;;;;;;;15.00;100.00;99825.78;5032879;28;19983;-71
2023/08/01 03:40:30;;;;;;;;;;;;;;;15.08;100.00;99833.06;5026280;28;19924;-70
2023/08/01 03:42:55;;;;;;;;;;;;;;;15.11;100.00;99829.97;5028500;28;19929;-72
2023/08/01 03:45:20;;;;;;;;;;;;;;;15.10;100.00;99835.56;5051430;28;20252;-71
2023/08/01 03:47:46;;;;;;;;;;;;;;;15.09;100.00;99837.44;5033726;28;20078;-71
2023/08/01 03:50:13;;;;;;;;;;;;;;;15.13;100.00;99835.22;5022793;28;20171;-74
2023/08/01 03:52:38;;;;;;;;;;;;;;;15.18;100.00;99845.50;5033629;28;20308;-72
2023/08/01 03:55:04;;;;;;;;;;;;;;;15.18;100.00;99834.69;5031064;28;19933;-75
2023/08/01 03:57:29;;;;;;;;;;;;;;;15.07;100.00;99833.22;5032284;28;19920;-69
2023/08/01 03:59:54;;;;;;;;;;;;;;;15.21;100.00;99835.22;5035727;28;19924;-69
2023/08/01 04:02:20;;;;;;;;;;;;;;;15.13;100.00;99841.47;5033799;28;20642;-70
2023/08/01 04:04:45;;;;;;;;;;;;;;;15.09;100.00;99839.28;5034656;28;20331;-71
2023/08/01 04:07:10;;;;;;;;;;;;;;;15.06;100.00;99839.63;5048324;28;19921;-72
2023/08/01 04:09:38;;;;;;;;;;;;;;;15.04;100.00;99837.13;5032160;28;19917;-73
2023/08/01 04:12:03;;;;;;;;;;;;;;;15.09;100.00;99836.59;5015737;28;20018;-72
2023/08/01 04:14:29;;;;;;;;;;;;;;;15.16;100.00;99837.59;5014942;28;19921;-72
2023/08/01 04:16:54;;;;;;;;;;;;;;;15.10;100.00;99833.69;5050993;28;19990;-72
2023/08/01 04:19:19;;;;;;;;;;;;;;;14.98;100.00;99835.09;5048843;28;19964;-73
2023/08/01 04:21:44;;;;;;;;;;;;;;;15.05;100.00;99837.94;5032511;28;19917;-72
2023/08/01 04:24:10;;;;;;;;;;;;;;;15.03;100.00;99843.53;5031400;28;19931;-73
2023/08/01 04:26:36;;;;;;;;;;;;;;;15.02;100.00;99843.69;5032066;28;19927;-73
2023/08/01 04:29:01;;;;;;;;;;;;;;;15.05;100.00;99849.63;5048958;28;20270;-72
2023/08/01 04:31:27;;;;;;;;;;;;;;;14.97;100.00;99844.22;5050069;28;20374;-70
2023/08/01 04:33:52;;;;;;;;;;;;;;;15.10;100.00;99841.81;5048651;28;20729;-70
2023/08/01 04:36:17;;;;;;;;;;;;;;;15.19;100.00;99839.94;5033838;28;19994;-72
2023/08/01 04:38:42;;;;;;;;;;;;;;;15.17;100.00;99844.69;5031787;28;20024;-69
2023/08/01 04:41:07;;;;;;;;;;;;;;;15.25;100.00;99851.91;5044661;28;19943;-72
2023/08/01 04:43:33;;;;;;;;;;;;;;;15.22;100.00;99845.00;5033575;28;20472;-71
2023/08/01 04:45:58;;;;;;;;;;;;;;;15.28;100.00;99844.28;5013393;28;20383;-72
2023/08/01 04:48:23;;;;;;;;;;;;;;;15.22;100.00;99838.75;5047497;28;20562;-70
2023/08/01 04:50:48;;;;;;;;;;;;;;;15.29;100.00;99839.75;5044364;28;19960;-71
2023/08/01 04:53:14;;;;;;;;;;;;;;;15.11;100.00;99845.38;5027933;28;20023;-70
2023/08/01 04:55:39;;;;;;;;;;;;;;;15.19;100.00;99845.34;5029022;28;19924;-71
2023/08/01 04:58:05;;;;;;;;;;;;;;;15.21;100.00;99850.56;5045092;28;19924;-71
2023/08/01 05:00:30;;;;;;;;;;;;;;;15.27;100.00;99845.31;5033161;28;19960;-72
2023/08/01 05:02:55;;;;;;;;;;;;;;;15.34;100.00;99850.03;5013604;28;20031;-73
2023/08/01 05:05:20;;;;;;;;;;;;;;;15.40;100.00;99847.44;5018819;28;20012;-73
2023/08/01 05:07:45;;;;;;;;;;;;;;;15.56;100.00;99849.25;5028652;28;19921;-71
2023/08/01 05:10:11;;;;;;;;;;;;;;;15.58;100.00;99849.91;5028170;28;20459;-72
2023/08/01 05:12:36;;;;;;;;;;;;;;;15.55;100.00;99852.13;5031624;28;20113;-71
2023/08/01 05:15:01;;;;;;;;;;;;;;;15.53;100.00;99854.16;5047344;28;19924;-71
2023/08/01 05:17:26;;;;;;;;;;;;;;;15.54;100.00;99850.44;5041489;28;19979;-71
2023/08/01 05:19:52;;;;;;;;;;;;;;;15.39;100.00;99836.81;5047903;28;19979;-72
2023/08/01 05:22:17;;;;;;;;;;;;;;;15.23;100.00;99841.25;5024561;28;19968;-74
2023/08/01 05:24:42;;;;;;;;;;;;;;;15.37;100.00;99849.66;5043257;28;19968;-70
2023/08/01 05:27:07;;;;;;;;;;;;;;;15.53;100.00;99846.88;5033535;28;20370;-72
2023/08/01 05:29:32;;;;;;;;;;;;;;;15.53;100.00;99855.00;5016547;28;20078;-72
2023/08/01 05:31:58;;;;;;;;;;;;;;;15.54;100.00;99859.38;5049484;28;19920;-73
2023/08/01 05:34:23;;;;;;;;;;;;;;;15.45;100.00;99855.88;5031660;28;20297;-69
2023/08/01 05:36:50;;;;;;;;;;;;;;;15.60;100.00;99864.09;5028109;28;19928;-71
2023/08/01 05:39:15;;;;;;;;;;;;;;;15.64;100.00;99863.75;5045803;28;19956;-72
2023/08/01 05:41:40;;;;;;;;;;;;;;;15.66;100.00;99862.53;5046303;28;20016;-71
2023/08/01 05:44:06;;;;;;;;;;;;;;;15.63;100.00;99862.06;5029199;28;19921;-71
2023/08/01 05:46:31;;;;;;;;;;;;;;;15.63;100.00;99862.06;5028004;28;19932;-71
2023/08/01 05:48:56;;;;;;;;;;;;;;;15.64;100.00;99867.28;5045254;28;20367;-70
2023/08/01 05:51:21;;;;;;;;;;;;;;;15.85;100.00;99863.97;5030445;28;20307;-70
2023/08/01 05:53:46;;;;;;;;;;;;;;;15.91;100.00;99862.44;5030902;28;20450;-71
2023/08/01 05:56:12;;;;;;;;;;;;;;;16.07;100.00;99864.19;5030939;28;20431;-72
2023/08/01 05:58:37;;;;;;;;;;;;;;;16.21;100.00;99868.00;5041777;28;19935;-70
2023/08/01 06:01:02;;;;;;;;;;;;;;;16.30;100.00;99866.06;5031050;28;20363;-69
2023/08/01 06:03:27;;;;;;;;;;;;;;;16.42;100.00;99867.34;5035018;28;19925;-71
2023/08/01 06:05:53;;;;;;;;;;;;;;;16.56;100.00;99872.97;5035681;28;19936;-71
2023/08/01 06:08:18;;;;;;;;;;;;;;;16.62;100.00;99872.25;5032501;28;19920;-71
2023/08/01 06:10:43;;;;;;;;;;;;;;;16.75;100.00;99877.03;5010984;28;19928;-72
2023/08/01 06:13:09;;;;;;;;;;;;;;;16.62;100.00;99878.53;5013461;28;19924;-69
2023/08/01 06:15:34;;;;;;;;;;;;;;;16.69;100.00;99881.34;5029005;28;19921;-71
2023/08/01 06:17:59;;;;;;;;;;;;;;;16.63;100.00;99893.75;5033166;28;20272;-71
2023/08/01 06:20:24;;;;;;;;;;;;;;;16.45;100.00;99893.22;5042849;28;20399;-71
2023/08/01 06:22:50;;;;;;;;;;;;;;;16.62;100.00;99891.22;5047342;28;19931;-70
2023/08/01 06:25:15;;;;;;;;;;;;;;;16.67;100.00;99894.22;5037674;28;19931;-71
2023/08/01 06:27:40;;;;;;;;;;;;;;;16.60;100.00;99904.09;5026577;28;20439;-72
2023/08/01 06:30:06;;;;;;;;;;;;;;;16.73;100.00;99904.34;5026413;28;19924;-74
2023/08/01 06:32:31;;;;;;;;;;;;;;;16.78;100.00;99892.94;5031162;28;19920;-71
2023/08/01 06:34:56;;;;;;;;;;;;;;;16.67;100.00;99891.53;5031531;28;20294;-73
2023/08/01 06:37:21;;;;;;;;;;;;;;;16.78;100.00;99885.66;5030843;28;20046;-71
2023/08/01 06:39:46;;;;;;;;;;;;;;;16.79;100.00;99883.78;5050588;28;19923;-74
2023/08/01 06:42:12;;;;;;;;;;;;;;;16.82;100.00;99883.44;5029535;28;19963;-73
2023/08/01 06:44:37;;;;;;;;;;;;;;;16.85;100.00;99887.63;5022422;28;19924;-72
2023/08/01 06:47:02;;;;;;;;;;;;;;;16.93;100.00;99896.53;5030707;28;19932;-71
2023/08/01 06:49:27;;;;;;;;;;;;;;;16.92;100.00;99894.00;5046343;28;19979;-70
2023/08/01 06:51:53;;;;;;;;;;;;;;;17.03;100.00;99890.88;5043114;28;19921;-71
2023/08/01 06:54:18;;;;;;;;;;;;;;;17.05;100.00;99901.53;5040641;28;20339;-71
2023/08/01 06:56:47;;;;;;;;;;;;;;;16.94;100.00;99898.22;5030434;28;20299;-71
2023/08/01 06:59:13;;;;;;;;;;;;;;;16.89;100.00;99895.22;5027480;28;19943;-72
2023/08/01 07:01:40;;;;;;;;;;;;;;;16.90;100.00;99898.75;5047589;28;19921;-73
2023/08/01 07:04:05;;;;;;;;;;;;;;;16.87;100.00;99899.13;5029174;28;19979;-73
2023/08/01 07:06:30;;;;;;;;;;;;;;;17.01;100.00;99902.91;5036403;28;19964;-75
2023/08/01 07:08:57;;;;;;;;;;;;;;;17.02;100.00;99908.19;5032821;28;19920;-72
2023/08/01 07:11:22;;;;;;;;;;;;;;;17.03;100.00;99898.16;5049778;28;20320;-73
2023/08/01 07:13:47;;;;;;;;;;;;;;;16.99;100.00;99903.13;5027412;28;19940;-71
2023/08/01 07:16:13;;;;;;;;;;;;;;;17.09;100.00;99902.84;5033571;28;19991;-78
2023/08/01 07:18:38;;;;;;;;;;;;;;;17.23;100.00;99902.00;5027993;28;19968;-73
2023/08/01 07:21:03;;;;;;;;;;;;;;;17.43;100.00;99909.63;5027581;28;20035;-72
2023/08/01 07:23:29;;;;;;;;;;;;;;;17.59;100.00;99894.16;5044844;28;19924;-72
2023/08/01 07:25:56;;;;;;;;;;;;;;;17.70;100.00;99890.97;5030719;28;21390;-74
2023/08/01 07:28:21;;;;;;;;;;;;;;;17.88;100.00;99887.81;5031305;28;19921;-69
2023/08/01 07:30:46;;;;;;;;;;;;;;;18.11;100.00;99895.03;5051337;28;20018;-70
2023/08/01 07:33:12;;;;;;;;;;;;;;;17.84;100.00;99894.69;5022037;28;19962;-69
2023/08/01 07:35:37;;;;;;;;;;;;;;;17.63;100.00;99893.56;5016044;28;19966;-71
2023/08/01 07:38:02;;;;;;;;;;;;;;;17.48;100.00;99900.91;5015732;28;20000;-72
2023/08/01 07:40:27;;;;;;;;;;;;;;;17.65;100.00;99891.50;5032153;28;19928;-73
2023/08/01 07:42:52;;;;;;;;;;;;;;;17.70;100.00;99885.53;5029492;28;21752;-71
2023/08/01 07:45:19;;;;;;;;;;;;;;;17.84;100.00;99881.94;5035360;28;20754;-69
2023/08/01 07:47:44;;;;;;;;;;;;;;;18.28;100.00;99880.16;5014446;28;20438;-70
2023/08/01 07:50:09;;;;;;;;;;;;;;;18.57;100.00;99875.59;5051280;28;19931;-71
2023/08/01 07:52:35;;;;;;;;;;;;;;;18.31;100.00;99878.91;5031584;28;20148;-70
2023/08/01 07:55:00;;;;;;;;;;;;;;;17.71;100.00;99892.66;5029421;28;19921;-71
2023/08/01 07:57:25;;;;;;;;;;;;;;;17.44;100.00;99911.28;5035525;28;20015;-71
2023/08/01 07:59:50;;;;;;;;;;;;;;;17.08;100.00;99909.31;5017195;28;20408;-73
2023/08/01 08:02:16;;;;;;;;;;;;;;;17.12;100.00;99912.47;5027122;28;19928;-71
2023/08/01 08:04:41;;;;;;;;;;;;;;;17.00;100.00;99917.50;5011474;28;19928;-71
2023/08/01 08:07:06;;;;;;;;;;;;;;;17.06;100.00;99920.34;5014862;28;19983;-72
2023/08/01 08:09:31;;;;;;;;;;;;;;;16.87;100.00;99918.97;5026153;28;20000;-71
2023/08/01 08:11:59;;;;;;;;;;;;;;;16.77;100.00;99943.63;5017468;28;19933;-70
2023/08/01 08:14:25;;;;;;;;;;;;;;;16.60;100.00;99942.03;5028363;28;20235;-71
2023/08/01 08:16:50;;;;;;;;;;;;;;;16.58;100.00;99947.66;5038816;28;19920;-73
2023/08/01 08:19:15;;;;;;;;;;;;;;;16.27;100.00;99942.28;5051613;28;19925;-69
2023/08/01 08:21:41;;;;;;;;;;;;;;;16.32;100.00;99937.16;5015381;28;20169;-70
2023/08/01 08:24:06;;;;;;;;;;;;;;;16.04;100.00;99943.94;5040209;28;20018;-69
2023/08/01 08:26:33;;;;;;;;;;;;;;;16.00;100.00;99947.19;5032731;28;20410;-69
2023/08/01 08:28:59;;;;;;;;;;;;;;;15.99;100.00;99959.03;5007858;28;20167;-69
2023/08/01 08:31:24;;;;;;;;;;;;;;;15.94;100.00;99953.28;5027466;28;19925;-70
2023/08/01 08:33:49;;;;;;;;;;;;;;;15.98;100.00;99958.16;5015050;28;20524;-71
2023/08/01 08:36:15;;;;;;;;;;;;;;;16.00;100.00;99950.72;5033859;28;20387;-71
2023/08/01 08:38:40;;;;;;;;;;;;;;;16.10;100.00;99946.97;5033812;28;20367;-70
2023/08/01 08:41:05;;;;;;;;;;;;;;;16.22;100.00;99950.94;5026582;28;19952;-70
2023/08/01 08:43:31;;;;;;;;;;;;;;;16.53;100.00;99958.19;5026254;28;20345;-70
2023/08/01 08:45:57;;;;;;;;;;;;;;;16.62;100.00;99938.16;5030883;28;20016;-69
2023/08/01 08:48:22;;;;;;;;;;;;;;;17.00;100.00;99963.59;5031702;28;20609;-70
2023/08/01 08:50:47;;;;;;;;;;;;;;;17.06;100.00;99952.88;5042273;28;19920;-70
2023/08/01 08:53:12;;;;;;;;;;;;;;;17.37;100.00;99949.16;5032435;28;19924;-69
2023/08/01 08:55:41;;;;;;;;;;;;;;;17.75;100.00;99953.66;5030754;28;20343;-70
2023/08/01 08:58:06;;;;;;;;;;;;;;;17.88;100.00;99939.41;5025846;28;19980;-69
2023/08/01 09:00:31;;;;;;;;;;;;;;;18.08;100.00;99934.25;5032770;28;20371;-73
2023/08/01 09:02:56;;;;;;;;;;;;;;;18.20;100.00;99931.06;5010422;28;20067;-70
2023/08/01 09:05:22;;;;;;;;;;;;;;;18.11;100.00;99923.00;5050710;28;20414;-72
2023/08/01 09:07:47;;;;;;;;;;;;;;;18.09;100.00;99926.97;5029301;28;19971;-71
2023/08/01 09:10:12;;;;;;;;;;;;;;;17.97;100.00;99926.59;5011235;28;20251;-71
2023/08/01 09:12:38;;;;;;;;;;;;;;;18.07;100.00;99932.56;5026960;28;19924;-71
2023/08/01 09:15:03;;;;;;;;;;;;;;;18.26;100.00;99936.56;5029506;28;19924;-70
2023/08/01 09:17:28;;;;;;;;;;;;;;;18.51;100.00;99919.03;5029652;28;19924;-71
2023/08/01 09:20:04;;;;;;;;;;;;;;;18.76;100.00;99921.34;5048502;28;19925;-74
2023/08/01 09:22:29;;;;;;;;;;;;;;;19.08;100.00;99935.44;5042411;28;19960;-72
2023/08/01 09:24:55;;;;;;;;;;;;;;;19.01;100.00;99922.66;5009287;28;20178;-71
2023/08/01 09:27:20;;;;;;;;;;;;;;;19.16;100.00;99910.81;5017724;28;19943;-72
2023/08/01 09:29:46;;;;;;;;;;;;;;;19.31;100.00;99924.31;5031659;28;19923;-74
2023/08/01 09:32:12;;;;;;;;;;;;;;;19.43;100.00;99922.72;5009355;28;20335;-74
2023/08/01 09:34:37;;;;;;;;;;;;;;;19.57;100.00;99922.78;5036722;28;19923;-74
2023/08/01 09:37:03;;;;;;;;;;;;;;;19.34;100.00;99937.50;5054647;28;19920;-74
2023/08/01 09:39:28;;;;;;;;;;;;;;;19.26;100.00;99935.78;5050354;28;19923;-71
2023/08/01 09:41:57;;;;;;;;;;;;;;;18.95;100.00;99937.03;5019230;28;19917;-72
2023/08/01 09:44:22;;;;;;;;;;;;;;;18.86;100.00;99933.56;5045204;28;19920;-70
2023/08/01 09:46:57;;;;;;;;;;;;;;;18.69;100.00;99943.03;5028725;28;19925;-70
2023/08/01 09:49:22;;;;;;;;;;;;;;;18.71;100.00;99951.84;5033669;28;19924;-70
2023/08/01 09:51:48;;;;;;;;;;;;;;;18.52;100.00;99942.47;5047705;28;19925;-72
2023/08/01 09:54:13;;;;;;;;;;;;;;;18.71;100.00;99951.84;5026206;28;20430;-71
2023/08/01 09:56:39;;;;;;;;;;;;;;;18.75;100.00;99944.97;5028831;28;19925;-72
2023/08/01 09:59:04;;;;;;;;;;;;;;;18.89;100.00;99951.38;5039924;28;19973;-74
2023/08/01 10:01:29;;;;;;;;;;;;;;;19.18;100.00;99957.69;5027567;28;19983;-72
2023/08/01 10:03:54;;;;;;;;;;;;;;;19.32;100.00;99961.34;5015913;28;19924;-74
2023/08/01 10:06:21;;;;;;;;;;;;;;;19.39;100.00;99954.09;5018224;28;19921;-73
2023/08/01 10:08:46;;;;;;;;;;;;;;;19.45;100.00;99955.16;5032458;28;19927;-71
2023/08/01 10:11:12;;;;;;;;;;;;;;;19.54;100.00;99951.25;5054587;28;19920;-74
2023/08/01 10:13:38;;;;;;;;;;;;;;;19.58;100.00;99959.84;5043607;28;19921;-72
2023/08/01 10:16:03;;;;;;;;;;;;;;;19.67;100.00;99952.34;5028817;28;20243;-73
2023/08/01 10:18:28;;;;;;;;;;;;;;;20.16;100.00;99956.78;5016737;28;19967;-72
2023/08/01 10:20:54;;;;;;;;;;;;;;;20.68;100.00;99953.53;5005016;28;20004;-71
2023/08/01 10:23:19;;;;;;;;;;;;;;;20.76;100.00;99944.34;5006345;28;19952;-73
2023/08/01 10:25:44;;;;;;;;;;;;;;;20.96;100.00;99952.56;5007596;28;19917;-71
2023/08/01 10:28:09;;;;;;;;;;;;;;;21.21;100.00;99949.19;5032551;28;19921;-72
2023/08/01 10:30:34;;;;;;;;;;;;;;;21.52;100.00;99947.66;5030338;28;19921;-73
2023/08/01 10:33:00;;;;;;;;;;;;;;;21.46;100.00;99951.25;5019133;28;20671;-74
2023/08/01 10:35:35;;;;;;;;;;;;;;;20.91;100.00;99953.19;5015199;28;20164;-72
2023/08/01 10:38:07;;;;;;;;;;;;;;;20.28;100.00;99956.22;5017336;28;19921;-74
2023/08/01 10:40:33;;;;;;;;;;;;;;;19.95;100.00;99965.94;5035137;28;19920;-77
2023/08/01 10:42:58;;;;;;;;;;;;;;;19.77;100.00;99958.28;5021859;28;19920;-74
2023/08/01 10:45:24;;;;;;;;;;;;;;;19.77;100.00;99956.38;5049920;28;20034;-74
2023/08/01 10:47:49;;;;;;;;;;;;;;;20.31;100.00;99959.34;5019855;28;20424;-75
2023/08/01 10:50:15;;;;;;;;;;;;;;;20.76;100.00;99958.84;5045342;28;20015;-72
2023/08/01 10:52:40;;;;;;;;;;;;;;;21.64;100.00;99956.06;5016346;28;20302;-78
2023/08/01 10:55:06;;;;;;;;;;;;;;;22.22;100.00;99966.16;5032589;28;19920;-75
2023/08/01 10:57:35;;;;;;;;;;;;;;;22.64;100.00;99964.88;5051664;28;20465;-77
2023/08/01 11:00:00;;;;;;;;;;;;;;;22.21;100.00;99964.47;5032334;28;20130;-70
2023/08/01 11:02:26;;;;;;;;;;;;;;;21.84;100.00;99981.44;5016761;28;19925;-72
2023/08/01 11:04:58;;;;;;;;;;;;;;;21.41;100.00;99981.91;5019658;28;19964;-74
2023/08/01 11:07:23;;;;;;;;;;;;;;;20.61;100.00;99969.91;5038994;28;19921;-72
2023/08/01 11:09:49;;;;;;;;;;;;;;;20.76;99.69;99977.94;5031431;28;19927;-71
2023/08/01 11:12:14;;;;;;;;;;;;;;;20.27;97.25;99976.34;5011117;28;19920;-75
2023/08/01 11:14:39;;;;;;;;;;;;;;;21.06;98.76;99982.13;5031130;28;19920;-70
2023/08/01 11:17:04;;;;;;;;;;;;;;;21.67;99.18;99972.88;5029665;28;19928;-70
2023/08/01 11:19:29;;;;;;;;;;;;;;;22.20;100.00;99978.34;5016798;28;19924;-69
2023/08/01 11:21:59;;;;;;;;;;;;;;;22.50;95.05;99988.75;5043068;28;19931;-72
2023/08/01 11:24:25;;;;;;;;;;;;;;;22.70;93.98;99975.78;5042073;28;19931;-71
2023/08/01 11:26:50;;;;;;;;;;;;;;;23.31;95.93;99973.44;5034901;28;19921;-72
2023/08/01 11:29:16;;;;;;;;;;;;;;;23.72;90.32;99965.63;5033551;28;19927;-71
2023/08/01 11:31:52;;;;;;;;;;;;;;;24.03;83.95;99971.19;5024379;28;19917;-71
2023/08/01 11:34:17;;;;;;;;;;;;;;;24.37;77.49;99986.16;5034587;28;19951;-75
2023/08/01 11:36:45;;;;;;;;;;;;;;;23.62;77.01;99974.38;5030766;28;20487;-75
2023/08/01 11:39:10;;;;;;;;;;;;;;;22.46;82.78;99983.72;5029592;28;19967;-72
2023/08/01 11:41:36;;;;;;;;;;;;;;;22.89;85.58;99993.13;5014039;28;20047;-72
2023/08/01 11:44:02;;;;;;;;;;;;;;;23.41;77.01;99991.25;5046126;28;19966;-73
2023/08/01 11:46:31;;;;;;;;;;;;;;;23.82;82.53;99992.50;5026597;28;20319;-72
2023/08/01 11:48:56;;;;;;;;;;;;;;;24.59;72.13;99987.53;5011664;28;20149;-72
2023/08/01 11:51:21;;;;;;;;;;;;;;;23.90;75.01;100002.31;5034110;28;19917;-72
2023/08/01 11:53:48;;;;;;;;;;;;;;;24.28;74.27;99998.53;5050835;28;19920;-72
2023/08/01 11:56:19;;;;;;;;;;;;;;;23.53;76.96;100008.63;5050469;28;20248;-75
2023/08/01 11:58:45;;;;;;;;;;;;;;;22.65;80.75;100005.69;5032351;28;19920;-73
2023/08/01 12:01:11;;;;;;;;;;;;;;;22.72;81.20;100008.41;5018405;28;20213;-73
2023/08/01 12:03:43;;;;;;;;;;;;;;;23.35;73.94;100006.66;5050533;28;19920;-71
2023/08/01 12:06:08;;;;;;;;;;;;;;;23.64;73.98;100010.63;5033861;28;19968;-71
2023/08/01 12:08:33;;;;;;;;;;;;;;;24.02;71.03;100003.28;5033389;28;20035;-75
2023/08/01 12:10:59;;;;;;;;;;;;;;;24.04;74.74;100011.25;5031338;28;20485;-73
2023/08/01 12:13:24;;;;;;;;;;;;;;;24.37;70.61;100005.34;5033567;28;19936;-71
2023/08/01 12:15:50;;;;;;;;;;;;;;;23.77;70.54;100004.16;5031646;28;19920;-73
2023/08/01 12:18:25;;;;;;;;;;;;;;;22.65;74.25;100005.69;5017563;28;19921;-74
2023/08/01 12:20:50;;;;;;;;;;;;;;;22.20;77.46;100008.41;5032478;28;19999;-77
2023/08/01 12:23:15;;;;;;;;;;;;;;;21.84;78.29;100021.59;5015238;28;20002;-72
2023/08/01 12:25:40;;;;;;;;;;;;;;;22.16;77.55;100022.53;5030589;28;19917;-74
2023/08/01 12:28:06;;;;;;;;;;;;;;;23.07;80.68;100019.72;5009909;28;19917;-71
2023/08/01 12:30:31;;;;;;;;;;;;;;;23.38;77.53;100030.06;5024462;28;20592;-72